PWSweather.com
Personal Weather Stations
Station Observations
PWSLORIS
The Farm At Fox Bay, Loris, SC 29569

The Farm At Fox BayLoris, SC 29569

Lat: 34.067097, Lon: -78.86907

Elevation: 108

Station Type: Davis Vantage Pro2 with 24 hr. FARS and solar

http://www.lorisweather.com

High Low Average
Temperature 53.1°F11.7°F 24.6°F-4.1°F 36.5°F2.5°F
Dew Point 34.9°F1.6°F 21.4°F-5.9°F 27.5°F-2.5°F
Winds 3.5 mph NW5.6 mph NW Calm Calm 0.2 mph 0.3 mph
Wind Gusts 4.6 mph7.4 mph -- 0.5 mph0.8 mph
Humidity 91% 45% 72%
Pressure 30.48 in1032.20 in 30.30 in1026.10 in -
Precipitation 0.00 in0.00 in - -
Hour Temp Dew Point Humidity Winds Wind Gusts Pressure Precip Precip Rate Daily Precip Total
12:00 AM 27.5°F-2.5°C 22.4°F-5.3°C 81% Calm Calm -- 30.44 in1030.8 mb - 0.00 in0.0 mm 0.00 in0.0 mm
12:15 AM 27.2°F-2.7°C 21.9°F-5.6°C 80% Calm Calm -- 30.44 in1030.8 mb - 0.00 in0.0 mm 0.00 in0.0 mm
12:30 AM 27.3°F-2.6°C 22.8°F-5.1°C 83% Calm Calm -- 30.44 in1030.8 mb - 0.00 in0.0 mm 0.00 in0.0 mm
12:45 AM 27.1°F-2.7°C 23.2°F-4.9°C 85% Calm Calm -- 30.44 in1030.8 mb - 0.00 in0.0 mm 0.00 in0.0 mm
01:00 AM 26.6°F-3.0°C 22.7°F-5.2°C 85% Calm Calm -- 30.44 in1030.8 mb - 0.00 in0.0 mm 0.00 in0.0 mm
01:15 AM 26.6°F-3.0°C 22.7°F-5.2°C 85% Calm Calm -- 30.44 in1030.8 mb - 0.00 in0.0 mm 0.00 in0.0 mm
01:30 AM 26.5°F-3.1°C 22.6°F-5.2°C 85% Calm Calm -- 30.45 in1031.2 mb - 0.00 in0.0 mm 0.00 in0.0 mm
01:45 AM 26.4°F-3.1°C 22.5°F-5.3°C 85% Calm Calm -- 30.44 in1030.8 mb - 0.00 in0.0 mm 0.00 in0.0 mm
02:00 AM 26.3°F-3.2°C 22.7°F-5.2°C 86% Calm Calm -- 30.44 in1030.8 mb - 0.00 in0.0 mm 0.00 in0.0 mm
02:15 AM 26.3°F-3.2°C 22.4°F-5.3°C 85% Calm Calm -- 30.44 in1030.8 mb - 0.00 in0.0 mm 0.00 in0.0 mm
02:30 AM 26.3°F-3.2°C 22.4°F-5.3°C 85% Calm Calm -- 30.44 in1030.8 mb - 0.00 in0.0 mm 0.00 in0.0 mm
02:45 AM 25.8°F-3.4°C 22.0°F-5.6°C 85% Calm Calm -- 30.44 in1030.8 mb - 0.00 in0.0 mm 0.00 in0.0 mm
03:00 AM 25.7°F-3.5°C 22.1°F-5.5°C 86% Calm Calm -- 30.44 in1030.8 mb - 0.00 in0.0 mm 0.00 in0.0 mm
03:15 AM 25.7°F-3.5°C 22.3°F-5.4°C 87% Calm Calm -- 30.45 in1031.2 mb - 0.00 in0.0 mm 0.00 in0.0 mm
03:30 AM 25.6°F-3.6°C 22.3°F-5.4°C 87% Calm Calm -- 30.45 in1031.2 mb - 0.00 in0.0 mm 0.00 in0.0 mm
03:45 AM 26.1°F-3.3°C 22.5°F-5.3°C 86% 1.2 mph NNW1.9 kmh NNW 3.5 mph5.6 kmh 30.45 in1031.2 mb - 0.00 in0.0 mm 0.00 in0.0 mm
04:00 AM 26.5°F-3.1°C 22.3°F-5.4°C 84% Calm Calm -- 30.45 in1031.2 mb - 0.00 in0.0 mm 0.00 in0.0 mm
04:15 AM 26.2°F-3.2°C 22.6°F-5.2°C 86% Calm Calm -- 30.45 in1031.2 mb - 0.00 in0.0 mm 0.00 in0.0 mm
04:30 AM 26.0°F-3.3°C 22.2°F-5.4°C 85% Calm Calm -- 30.46 in1031.5 mb - 0.00 in0.0 mm 0.00 in0.0 mm
04:45 AM 25.9°F-3.4°C 22.0°F-5.6°C 85% Calm Calm -- 30.46 in1031.5 mb - 0.00 in0.0 mm 0.00 in0.0 mm
05:00 AM 25.5°F-3.6°C 21.9°F-5.6°C 86% Calm Calm -- 30.45 in1031.2 mb - 0.00 in0.0 mm 0.00 in0.0 mm
05:15 AM 25.2°F-3.8°C 21.9°F-5.6°C 87% Calm Calm -- 30.45 in1031.2 mb - 0.00 in0.0 mm 0.00 in0.0 mm
05:30 AM 25.2°F-3.8°C 21.9°F-5.6°C 87% Calm Calm -- 30.45 in1031.2 mb - 0.00 in0.0 mm 0.00 in0.0 mm
05:45 AM 25.1°F-3.8°C 21.8°F-5.7°C 87% Calm Calm -- 30.46 in1031.5 mb - 0.00 in0.0 mm 0.00 in0.0 mm
06:00 AM 24.9°F-3.9°C 21.6°F-5.8°C 87% Calm Calm -- 30.45 in1031.2 mb - 0.00 in0.0 mm 0.00 in0.0 mm
06:15 AM 25.1°F-3.8°C 22.0°F-5.6°C 88% Calm Calm -- 30.46 in1031.5 mb - 0.00 in0.0 mm 0.00 in0.0 mm
06:30 AM 24.7°F-4.1°C 21.4°F-5.9°C 87% Calm Calm -- 30.46 in1031.5 mb - 0.00 in0.0 mm 0.00 in0.0 mm
06:45 AM 24.6°F-4.1°C 21.6°F-5.8°C 88% Calm Calm -- 30.46 in1031.5 mb - 0.00 in0.0 mm 0.00 in0.0 mm
07:00 AM 24.6°F-4.1°C 21.6°F-5.8°C 88% Calm Calm -- 30.46 in1031.5 mb - 0.00 in0.0 mm 0.00 in0.0 mm
07:15 AM 24.7°F-4.1°C 21.7°F-5.7°C 88% Calm Calm -- 30.46 in1031.5 mb - 0.00 in0.0 mm 0.00 in0.0 mm
07:30 AM 24.7°F-4.1°C 21.7°F-5.7°C 88% Calm Calm -- 30.47 in1031.8 mb - 0.00 in0.0 mm 0.00 in0.0 mm
07:45 AM 24.7°F-4.1°C 22.0°F-5.6°C 89% Calm Calm -- 30.47 in1031.8 mb - 0.00 in0.0 mm 0.00 in0.0 mm
08:00 AM 25.3°F-3.7°C 22.5°F-5.3°C 89% Calm Calm -- 30.47 in1031.8 mb - 0.00 in0.0 mm 0.00 in0.0 mm
08:15 AM 27.3°F-2.6°C 24.5°F-4.2°C 89% Calm Calm -- 30.48 in1032.2 mb - 0.00 in0.0 mm 0.00 in0.0 mm
08:30 AM 29.6°F-1.3°C 25.3°F-3.7°C 84% Calm Calm -- 30.48 in1032.2 mb - 0.00 in0.0 mm 0.00 in0.0 mm
08:45 AM 31.6°F-0.2°C 26.4°F-3.1°C 81% Calm Calm -- 30.48 in1032.2 mb - 0.00 in0.0 mm 0.00 in0.0 mm
09:00 AM 33.4°F0.8°C 27.6°F-2.4°C 79% Calm Calm -- 30.48 in1032.2 mb - 0.00 in0.0 mm 0.00 in0.0 mm
09:15 AM 35.3°F1.8°C 28.8°F-1.8°C 77% Calm Calm -- 30.48 in1032.2 mb - 0.00 in0.0 mm 0.00 in0.0 mm
09:30 AM 36.8°F2.7°C 29.0°F-1.7°C 73% Calm Calm -- 30.48 in1032.2 mb - 0.00 in0.0 mm 0.00 in0.0 mm
09:45 AM 37.7°F3.2°C 29.5°F-1.4°C 72% Calm Calm -- 30.48 in1032.2 mb - 0.00 in0.0 mm 0.00 in0.0 mm
10:00 AM 39.0°F3.9°C 29.7°F-1.3°C 69% 2.3 mph NNE3.7 kmh NNE 3.5 mph5.6 kmh 30.48 in1032.2 mb - 0.00 in0.0 mm 0.00 in0.0 mm
10:15 AM 40.2°F4.6°C 29.4°F-1.4°C 65% 1.2 mph ENE1.9 kmh ENE 3.5 mph5.6 kmh 30.48 in1032.2 mb - 0.00 in0.0 mm 0.00 in0.0 mm
10:30 AM 41.5°F5.3°C 30.2°F-1.0°C 64% 2.3 mph ENE3.7 kmh ENE 3.5 mph5.6 kmh 30.47 in1031.8 mb - 0.00 in0.0 mm 0.00 in0.0 mm
10:45 AM 42.9°F6.1°C 29.9°F-1.2°C 60% Calm Calm -- 30.47 in1031.8 mb - 0.00 in0.0 mm 0.00 in0.0 mm
11:00 AM 43.7°F6.5°C 28.6°F-1.9°C 55% Calm Calm -- 30.46 in1031.5 mb - 0.00 in0.0 mm 0.00 in0.0 mm
11:15 AM 44.7°F7.1°C 29.5°F-1.4°C 55% Calm Calm -- 30.45 in1031.2 mb - 0.00 in0.0 mm 0.00 in0.0 mm
11:30 AM 45.1°F7.3°C 29.9°F-1.2°C 55% 1.2 mph NNE1.9 kmh NNE 3.5 mph5.6 kmh 30.45 in1031.2 mb - 0.00 in0.0 mm 0.00 in0.0 mm
11:45 AM 46.2°F7.9°C 29.5°F-1.4°C 52% Calm Calm -- 30.44 in1030.8 mb - 0.00 in0.0 mm 0.00 in0.0 mm
12:00 PM 47.7°F8.7°C 30.4°F-0.9°C 51% Calm Calm -- 30.43 in1030.5 mb - 0.00 in0.0 mm 0.00 in0.0 mm
12:15 PM 48.5°F9.2°C 32.1°F0.1°C 53% Calm Calm -- 30.42 in1030.1 mb - 0.00 in0.0 mm 0.00 in0.0 mm
12:30 PM 49.0°F9.4°C 31.2°F-0.4°C 50% Calm Calm 2.3 mph3.7 kmh 30.41 in1029.8 mb - 0.00 in0.0 mm 0.00 in0.0 mm
12:45 PM 50.0°F10.0°C 31.0°F-0.6°C 48% Calm Calm -- 30.40 in1029.5 mb - 0.00 in0.0 mm 0.00 in0.0 mm
01:00 PM 50.5°F10.3°C 32.1°F0.1°C 49% 2.3 mph N3.7 kmh N 3.5 mph5.6 kmh 30.39 in1029.1 mb - 0.00 in0.0 mm 0.00 in0.0 mm
01:15 PM 50.8°F10.4°C 31.8°F-0.1°C 48% Calm Calm -- 30.39 in1029.1 mb - 0.00 in0.0 mm 0.00 in0.0 mm
01:30 PM 50.7°F10.4°C 32.2°F0.1°C 49% 1.2 mph NNW1.9 kmh NNW 4.6 mph7.4 kmh 30.38 in1028.8 mb - 0.00 in0.0 mm 0.00 in0.0 mm
01:45 PM 51.3°F10.7°C 32.3°F0.2°C 48% 1.2 mph NW1.9 kmh NW 3.5 mph5.6 kmh 30.37 in1028.4 mb - 0.00 in0.0 mm 0.00 in0.0 mm
02:00 PM 51.7°F10.9°C 33.1°F0.6°C 49% Calm Calm -- 30.36 in1028.1 mb - 0.00 in0.0 mm 0.00 in0.0 mm
02:15 PM 52.7°F11.5°C 33.0°F0.6°C 47% Calm Calm 1.2 mph1.9 kmh 30.36 in1028.1 mb - 0.00 in0.0 mm 0.00 in0.0 mm
02:30 PM 53.1°F11.7°C 32.3°F0.2°C 45% 3.5 mph NW5.6 kmh NW 4.6 mph7.4 kmh 30.35 in1027.8 mb - 0.00 in0.0 mm 0.00 in0.0 mm
02:45 PM 52.5°F11.4°C 32.3°F0.2°C 46% Calm Calm -- 30.35 in1027.8 mb - 0.00 in0.0 mm 0.00 in0.0 mm
03:00 PM 53.0°F11.7°C 32.7°F0.4°C 46% Calm Calm -- 30.35 in1027.8 mb - 0.00 in0.0 mm 0.00 in0.0 mm
03:15 PM 52.8°F11.6°C 32.5°F0.3°C 46% Calm Calm -- 30.35 in1027.8 mb - 0.00 in0.0 mm 0.00 in0.0 mm
03:30 PM 52.6°F11.4°C 32.9°F0.5°C 47% Calm Calm -- 30.35 in1027.8 mb - 0.00 in0.0 mm 0.00 in0.0 mm
03:45 PM 52.5°F11.4°C 32.3°F0.2°C 46% Calm Calm -- 30.35 in1027.8 mb - 0.00 in0.0 mm 0.00 in0.0 mm
04:00 PM 52.6°F11.4°C 32.4°F0.2°C 46% 1.2 mph NNW1.9 kmh NNW 3.5 mph5.6 kmh 30.36 in1028.1 mb - 0.00 in0.0 mm 0.00 in0.0 mm
04:15 PM 52.1°F11.2°C 33.0°F0.6°C 48% Calm Calm -- 30.36 in1028.1 mb - 0.00 in0.0 mm 0.00 in0.0 mm
04:30 PM 51.4°F10.8°C 33.4°F0.8°C 50% Calm Calm -- 30.36 in1028.1 mb - 0.00 in0.0 mm 0.00 in0.0 mm
04:45 PM 50.7°F10.4°C 34.1°F1.2°C 53% Calm Calm -- 30.36 in1028.1 mb - 0.00 in0.0 mm 0.00 in0.0 mm
05:00 PM 49.1°F9.5°C 34.9°F1.6°C 58% Calm Calm -- 30.36 in1028.1 mb - 0.00 in0.0 mm 0.00 in0.0 mm
05:15 PM 47.8°F8.8°C 34.2°F1.2°C 59% Calm Calm -- 30.36 in1028.1 mb - 0.00 in0.0 mm 0.00 in0.0 mm
05:30 PM 46.5°F8.1°C 34.5°F1.4°C 63% Calm Calm -- 30.35 in1027.8 mb - 0.00 in0.0 mm 0.00 in0.0 mm
05:45 PM 44.8°F7.1°C 34.5°F1.4°C 67% Calm Calm -- 30.35 in1027.8 mb - 0.00 in0.0 mm 0.00 in0.0 mm
06:00 PM 43.6°F6.4°C 34.1°F1.2°C 69% Calm Calm -- 30.35 in1027.8 mb - 0.00 in0.0 mm 0.00 in0.0 mm
10:00 PM 34.6°F1.4°C 31.7°F-0.2°C 89% Calm Calm -- 30.34 in1027.4 mb - 0.00 in0.0 mm 0.00 in0.0 mm
10:15 PM 34.1°F1.2°C 31.2°F-0.4°C 89% Calm Calm -- 30.34 in1027.4 mb - 0.00 in0.0 mm 0.00 in0.0 mm
10:30 PM 33.7°F0.9°C 30.8°F-0.7°C 89% Calm Calm -- 30.33 in1027.1 mb - 0.00 in0.0 mm 0.00 in0.0 mm
10:45 PM 33.5°F0.8°C 30.9°F-0.6°C 90% Calm Calm -- 30.33 in1027.1 mb - 0.00 in0.0 mm 0.00 in0.0 mm
11:00 PM 33.5°F0.8°C 30.9°F-0.6°C 90% Calm Calm -- 30.32 in1026.8 mb - 0.00 in0.0 mm 0.00 in0.0 mm
11:15 PM 33.5°F0.8°C 30.8°F-0.7°C 90% Calm Calm -- 30.32 in1026.8 mb - 0.00 in0.0 mm 0.00 in0.0 mm
11:30 PM 32.9°F0.5°C 30.6°F-0.8°C 91% Calm Calm -- 30.30 in1026.1 mb - 0.00 in0.0 mm 0.00 in0.0 mm
11:45 PM 32.8°F0.4°C 30.5°F-0.8°C 91% Calm Calm -- 30.30 in1026.1 mb - 0.00 in0.0 mm 0.00 in0.0 mm